Time;durP1;ratioP1;P1;durP2;ratioP2;P2;SDS_P1;SDS_P2;PMS_P1;PMS_P2;Temp;Humidity;BMP_temperature;BMP_pressure;BME280_temperature;BME280_humidity;BME280_pressure;Samples;Min_cycle;Max_cycle;Signal;HPM_P1;HPM_P2
2022/07/23 00:01:11;;;;;;;19.77;8.75;;;19.30;99.90;;;;;;6336137;28;20270;-66
2022/07/23 00:04:18;;;;;;;18.17;8.23;;;19.40;99.90;;;;;;6334247;28;20273;-66
2022/07/23 00:07:23;;;;;;;22.15;8.90;;;19.40;99.90;;;;;;6325882;28;20561;-66
2022/07/23 00:10:28;;;;;;;22.15;8.40;;;19.40;99.90;;;;;;6336100;28;20273;-66
2022/07/23 00:13:33;;;;;;;22.50;9.07;;;19.40;99.90;;;;;;6336333;28;20333;-66
2022/07/23 00:16:39;;;;;;;20.95;9.40;;;19.40;99.90;;;;;;6335679;28;20270;-66
2022/07/23 00:19:45;;;;;;;23.42;8.88;;;19.30;99.90;;;;;;6335879;28;20289;-66
2022/07/23 00:22:54;;;;;;;18.17;8.38;;;19.30;99.90;;;;;;6335546;28;20549;-66
2022/07/23 00:25:59;;;;;;;18.60;8.23;;;19.30;99.90;;;;;;6335661;28;20266;-66
2022/07/23 00:29:04;;;;;;;23.95;8.85;;;19.30;99.90;;;;;;6335276;28;20273;-66
2022/07/23 00:32:11;;;;;;;20.13;9.18;;;19.20;99.90;;;;;;6335728;28;20274;-66
2022/07/23 00:35:21;;;;;;;21.02;9.30;;;19.30;99.90;;;;;;6335570;28;20573;-66
2022/07/23 00:38:26;;;;;;;18.60;8.45;;;19.30;99.90;;;;;;6340263;28;20294;-66
2022/07/23 00:41:32;;;;;;;21.70;8.38;;;19.40;99.90;;;;;;6340542;28;20274;-67
2022/07/23 00:44:37;;;;;;;17.73;7.45;;;19.40;99.90;;;;;;6340624;28;20553;-66
2022/07/23 00:47:49;;;;;;;27.05;8.13;;;19.30;99.90;;;;;;6322694;28;20273;-66
2022/07/23 00:50:55;;;;;;;24.58;8.05;;;19.30;99.90;;;;;;6322836;28;20586;-66
2022/07/23 00:54:00;;;;;;;23.38;8.95;;;19.30;99.90;;;;;;6321712;28;20456;-66
2022/07/23 00:57:06;;;;;;;31.38;9.40;;;19.00;99.90;;;;;;6339861;28;20269;-66
2022/07/23 01:00:15;;;;;;;28.17;8.20;;;19.00;99.90;;;;;;6340455;28;20289;-66
2022/07/23 01:03:20;;;;;;;27.17;8.10;;;19.00;99.90;;;;;;6340305;28;20557;-67
2022/07/23 01:06:27;;;;;;;39.92;9.88;;;18.60;99.90;;;;;;6322062;28;20267;-66
2022/07/23 01:09:32;;;;;;;39.10;10.38;;;18.70;99.90;;;;;;6339969;28;20273;-66
2022/07/23 01:12:37;;;;;;;33.97;10.05;;;18.70;99.90;;;;;;6340083;28;20546;-66
2022/07/23 01:15:43;;;;;;;33.75;10.13;;;18.70;99.90;;;;;;6321821;28;20269;-66
2022/07/23 01:18:48;;;;;;;37.28;10.55;;;18.80;99.90;;;;;;6340055;28;20270;-67
2022/07/23 01:21:55;;;;;;;38.50;9.60;;;18.70;99.90;;;;;;6338711;28;20463;-66
2022/07/23 01:25:02;;;;;;;47.25;10.38;;;18.70;99.90;;;;;;6322039;28;20291;-66
2022/07/23 01:28:08;;;;;;;32.65;9.73;;;18.70;99.90;;;;;;6321803;28;20556;-66
2022/07/23 01:31:13;;;;;;;26.02;9.25;;;18.70;99.90;;;;;;6338348;28;20273;-66
2022/07/23 01:34:19;;;;;;;40.92;10.13;;;18.60;99.90;;;;;;6338510;28;20557;-66
2022/07/23 01:37:25;;;;;;;34.90;9.93;;;18.50;99.90;;;;;;6321221;28;20451;-67
2022/07/23 01:40:32;;;;;;;37.90;10.75;;;18.50;99.90;;;;;;6337701;28;20293;-66
2022/07/23 01:43:38;;;;;;;31.63;9.93;;;18.50;99.90;;;;;;6338003;28;20273;-66
2022/07/23 01:46:43;;;;;;;31.92;10.10;;;18.30;99.90;;;;;;6338803;28;20265;-66
2022/07/23 01:49:49;;;;;;;35.60;9.43;;;18.20;99.90;;;;;;6338140;28;20274;-66
2022/07/23 01:53:19;;;;;;;31.67;9.95;;;18.10;99.90;;;;;;6321151;28;20294;-67
2022/07/23 01:56:27;;;;;;;22.27;8.82;;;18.20;99.90;;;;;;6320796;28;20270;-66
2022/07/23 01:59:33;;;;;;;17.45;7.03;;;18.20;99.90;;;;;;6320771;28;20274;-66
2022/07/23 02:02:39;;;;;;;28.52;8.57;;;18.10;99.90;;;;;;6337870;28;20549;-66
2022/07/23 02:05:44;;;;;;;20.23;7.93;;;18.10;99.90;;;;;;6333301;28;20261;-66
2022/07/23 02:08:50;;;;;;;23.15;7.53;;;18.10;99.90;;;;;;6320955;28;20269;-66
2022/07/23 02:11:57;;;;;;;14.93;7.03;;;18.00;99.90;;;;;;6320847;28;20549;-66
2022/07/23 02:15:03;;;;;;;17.20;7.35;;;17.90;99.90;;;;;;6320734;28;20265;-66
2022/07/23 02:18:13;;;;;;;15.00;6.50;;;18.00;99.90;;;;;;6321410;28;20290;-66
2022/07/23 02:21:19;;;;;;;14.50;6.45;;;17.80;99.90;;;;;;6338645;28;20285;-66
2022/07/23 02:24:24;;;;;;;17.13;6.40;;;17.80;99.90;;;;;;6338095;28;20269;-66
2022/07/23 02:27:32;;;;;;;16.60;6.55;;;17.80;99.90;;;;;;6336422;28;20274;-66
2022/07/23 02:30:42;;;;;;;14.68;6.40;;;17.80;99.90;;;;;;6320158;28;20273;-66
2022/07/23 02:33:48;;;;;;;14.50;5.65;;;17.60;99.90;;;;;;6320409;28;20273;-66
2022/07/23 02:36:55;;;;;;;11.77;5.78;;;17.50;99.90;;;;;;6336557;28;20279;-66
2022/07/23 02:40:01;;;;;;;10.93;5.22;;;17.40;99.90;;;;;;6319336;28;20297;-66
2022/07/23 02:43:11;;;;;;;11.95;5.35;;;17.50;99.90;;;;;;6320139;28;20334;-66
2022/07/23 02:46:18;;;;;;;13.73;5.75;;;17.50;99.90;;;;;;6320074;28;20274;-66
2022/07/23 02:49:25;;;;;;;15.13;5.57;;;17.40;99.90;;;;;;6319666;28;20275;-66
2022/07/23 02:52:30;;;;;;;13.15;5.70;;;17.40;99.90;;;;;;6336441;28;20274;-66
2022/07/23 02:55:36;;;;;;;14.13;5.40;;;17.40;99.90;;;;;;6319477;28;20290;-66
2022/07/23 02:58:42;;;;;;;6.15;4.40;;;17.40;99.90;;;;;;6335568;28;20320;-66
2022/07/23 03:01:47;;;;;;;13.43;4.95;;;17.50;99.90;;;;;;6337568;28;20294;-66
2022/07/23 03:04:53;;;;;;;7.20;3.90;;;17.40;99.90;;;;;;6314992;28;20554;-66
2022/07/23 03:07:58;;;;;;;5.45;3.53;;;17.30;99.90;;;;;;6314125;28;20270;-66
2022/07/23 03:11:03;;;;;;;5.70;3.97;;;17.40;99.90;;;;;;6318936;28;20278;-66
2022/07/23 03:14:13;;;;;;;3.60;3.40;;;17.30;99.90;;;;;;6337267;28;20270;-66
2022/07/23 03:17:18;;;;;;;5.03;3.42;;;17.20;99.90;;;;;;6319102;28;20274;-66
2022/07/23 03:20:24;;;;;;;4.05;2.97;;;17.10;99.90;;;;;;6319210;28;20273;-66
2022/07/23 03:23:30;;;;;;;2.95;2.78;;;17.10;99.90;;;;;;6335653;28;20294;-66
2022/07/23 03:26:35;;;;;;;2.33;2.20;;;17.10;99.90;;;;;;6335751;28;20548;-66
2022/07/23 03:29:42;;;;;;;2.10;2.00;;;17.10;99.90;;;;;;6335731;28;20270;-66
2022/07/23 03:32:48;;;;;;;2.53;2.30;;;17.10;99.90;;;;;;6318979;28;20464;-66
2022/07/23 03:35:53;;;;;;;1.92;1.80;;;16.90;99.90;;;;;;6312213;28;20274;-66
2022/07/23 03:39:04;;;;;;;2.28;2.05;;;16.90;99.90;;;;;;6334726;28;20298;-66
2022/07/23 03:42:11;;;;;;;2.17;2.00;;;16.90;99.90;;;;;;6336472;28;20302;-66
2022/07/23 03:45:18;;;;;;;1.88;1.80;;;17.00;99.90;;;;;;6336252;28;20265;-66
2022/07/23 03:48:23;;;;;;;1.98;1.88;;;17.00;99.90;;;;;;6336057;28;20561;-66
2022/07/23 03:51:29;;;;;;;1.92;1.85;;;17.10;99.90;;;;;;6336667;28;20273;-66
2022/07/23 03:54:34;;;;;;;1.70;1.60;;;17.00;99.90;;;;;;6335125;28;20269;-66
2022/07/23 03:57:40;;;;;;;1.98;1.88;;;17.00;99.90;;;;;;6336344;28;20274;-66
2022/07/23 04:00:47;;;;;;;1.70;1.60;;;17.10;99.90;;;;;;6318188;28;20274;-66
2022/07/23 04:03:53;;;;;;;2.50;1.65;;;17.00;99.90;;;;;;6318219;28;20294;-66
2022/07/23 04:06:59;;;;;;;1.58;1.48;;;17.00;99.90;;;;;;6329771;28;20265;-66
2022/07/23 04:10:06;;;;;;;1.98;1.88;;;17.00;99.90;;;;;;6317429;28;20275;-66
2022/07/23 04:13:14;;;;;;;1.48;1.48;;;17.10;99.90;;;;;;6335315;28;20274;-66
2022/07/23 04:16:21;;;;;;;1.20;1.20;;;17.10;99.90;;;;;;6318018;28;20269;-66
2022/07/23 04:19:28;;;;;;;1.70;1.60;;;17.10;99.90;;;;;;6334858;28;20553;-66
2022/07/23 04:22:40;;;;;;;1.40;1.40;;;17.10;99.90;;;;;;6317552;28;20455;-66
2022/07/23 04:25:45;;;;;;;3.13;1.42;;;17.00;99.90;;;;;;6336124;28;20290;-66
2022/07/23 04:28:50;;;;;;;1.67;1.58;;;17.10;99.90;;;;;;6317679;28;20450;-66
2022/07/23 04:31:57;;;;;;;1.67;1.58;;;17.20;99.90;;;;;;6335314;28;20278;-66
2022/07/23 04:35:02;;;;;;;1.60;1.50;;;17.10;99.90;;;;;;6334322;28;20269;-66
2022/07/23 04:38:08;;;;;;;1.60;1.50;;;17.00;99.90;;;;;;6334046;28;20337;-66
2022/07/23 04:41:15;;;;;;;1.70;1.40;;;17.00;99.90;;;;;;6334124;28;20270;-66
2022/07/23 04:44:21;;;;;;;2.50;1.45;;;17.10;99.90;;;;;;6335382;28;20289;-66
2022/07/23 04:47:27;;;;;;;1.30;1.30;;;17.10;99.90;;;;;;6317754;28;20585;-66
2022/07/23 04:50:35;;;;;;;1.90;1.80;;;17.10;99.90;;;;;;6334265;28;20270;-66
2022/07/23 04:53:42;;;;;;;1.48;1.40;;;17.10;99.90;;;;;;6335373;28;20270;-66
2022/07/23 04:56:49;;;;;;;1.70;1.45;;;17.00;99.90;;;;;;6317518;28;20273;-66
2022/07/23 04:59:54;;;;;;;1.40;1.30;;;17.10;99.90;;;;;;6317497;28;20274;-66
2022/07/23 05:03:01;;;;;;;1.73;1.40;;;17.10;99.90;;;;;;6316842;28;20293;-66
2022/07/23 05:06:09;;;;;;;1.50;1.50;;;17.10;99.90;;;;;;6313675;28;20566;-66
2022/07/23 05:09:15;;;;;;;1.40;1.40;;;17.00;99.90;;;;;;6317350;28;20270;-66
2022/07/23 05:12:20;;;;;;;2.15;1.73;;;17.00;99.90;;;;;;6333994;28;20273;-66
2022/07/23 05:15:26;;;;;;;1.98;1.63;;;17.00;99.90;;;;;;6334242;28;20265;-66
2022/07/23 05:18:33;;;;;;;2.25;1.60;;;17.00;99.90;;;;;;6333313;28;20270;-66
2022/07/23 05:21:39;;;;;;;1.83;1.73;;;17.10;99.90;;;;;;6335398;28;20290;-66
2022/07/23 05:24:44;;;;;;;1.70;1.70;;;17.10;99.90;;;;;;6339858;28;20285;-66
2022/07/23 05:27:49;;;;;;;3.08;1.90;;;17.10;99.90;;;;;;6321790;28;20270;-66
2022/07/23 05:30:55;;;;;;;2.85;2.08;;;17.10;99.90;;;;;;6338436;28;20580;-67
2022/07/23 05:34:02;;;;;;;2.20;2.10;;;17.10;99.90;;;;;;6316852;28;20274;-66
2022/07/23 05:37:09;;;;;;;1.75;1.65;;;16.90;99.90;;;;;;6337889;28;20270;-66
2022/07/23 05:40:15;;;;;;;2.22;2.20;;;17.00;99.90;;;;;;6318688;28;20457;-66
2022/07/23 05:43:21;;;;;;;4.15;1.73;;;17.00;99.90;;;;;;6339396;28;20286;-66
2022/07/23 05:46:27;;;;;;;2.28;2.08;;;16.90;99.90;;;;;;6321171;28;20269;-66
2022/07/23 05:49:39;;;;;;;1.60;1.60;;;16.90;99.90;;;;;;6337971;28;20492;-66
2022/07/23 05:53:13;;;;;;;1.73;1.73;;;17.00;99.90;;;;;;6318042;28;20560;-66
2022/07/23 05:56:37;;;;;;;1.95;1.50;;;17.00;99.90;;;;;;6313097;28;20270;-66
2022/07/23 05:59:42;;;;;;;1.77;1.67;;;17.00;99.90;;;;;;6338716;28;20578;-66
2022/07/23 06:02:47;;;;;;;4.80;1.75;;;17.00;99.90;;;;;;6339069;28;20289;-66
2022/07/23 06:06:01;;;;;;;1.60;1.50;;;17.10;99.90;;;;;;6316036;28;20262;-66
2022/07/23 06:09:06;;;;;;;5.25;1.98;;;17.20;99.90;;;;;;6320949;28;20269;-66
2022/07/23 06:12:13;;;;;;;2.00;1.90;;;17.20;99.90;;;;;;6320266;28;20291;-66
2022/07/23 06:15:18;;;;;;;1.77;1.67;;;17.20;99.90;;;;;;6338393;28;20273;-66
2022/07/23 06:18:24;;;;;;;1.50;1.50;;;17.20;99.90;;;;;;6320403;28;20273;-66
2022/07/23 06:21:32;;;;;;;1.60;1.50;;;17.20;99.90;;;;;;6336996;28;20286;-66
2022/07/23 06:24:54;;;;;;;1.65;1.65;;;17.30;99.90;;;;;;6337251;28;20293;-66
2022/07/23 06:28:00;;;;;;;1.40;1.40;;;17.40;99.90;;;;;;6320476;28;20553;-66
2022/07/23 06:31:05;;;;;;;1.45;1.45;;;17.50;99.90;;;;;;6337814;28;20274;-66
2022/07/23 06:34:11;;;;;;;1.63;1.63;;;17.50;99.90;;;;;;6336753;28;20271;-66
2022/07/23 06:37:17;;;;;;;1.30;1.20;;;17.60;99.90;;;;;;6338021;28;20278;-66
2022/07/23 06:40:23;;;;;;;1.77;1.77;;;17.60;99.90;;;;;;6319430;28;20281;-66
2022/07/23 06:43:31;;;;;;;1.70;1.60;;;17.60;99.90;;;;;;6337635;28;20289;-66
2022/07/23 06:46:36;;;;;;;1.50;1.40;;;17.60;99.90;;;;;;6319982;28;20265;-66
2022/07/23 06:49:42;;;;;;;1.67;1.38;;;17.60;99.90;;;;;;6319439;28;20273;-66
2022/07/23 06:52:49;;;;;;;1.25;1.25;;;17.50;99.90;;;;;;6319482;28;20273;-66
2022/07/23 06:55:54;;;;;;;1.30;1.30;;;17.50;99.90;;;;;;6319341;28;20277;-66
2022/07/23 06:58:59;;;;;;;1.27;1.27;;;17.50;99.90;;;;;;6337451;28;20472;-66
2022/07/23 07:02:05;;;;;;;1.10;1.10;;;17.60;99.90;;;;;;6335966;28;20452;-66
2022/07/23 07:05:11;;;;;;;1.27;1.27;;;17.70;99.90;;;;;;6314859;28;20282;-66
2022/07/23 07:08:18;;;;;;;1.10;1.10;;;17.80;99.90;;;;;;6336879;28;20273;-66
2022/07/23 07:11:25;;;;;;;1.00;1.00;;;17.90;99.90;;;;;;6337172;28;20269;-66
2022/07/23 07:14:30;;;;;;;1.30;1.23;;;17.80;99.90;;;;;;6337022;28;20459;-66
2022/07/23 07:17:35;;;;;;;1.20;1.20;;;17.80;99.90;;;;;;6336791;28;20460;-66
2022/07/23 07:20:40;;;;;;;1.30;1.30;;;17.80;99.90;;;;;;6336670;28;20270;-66
2022/07/23 07:23:47;;;;;;;1.35;1.30;;;17.90;99.90;;;;;;6336980;28;20269;-67
2022/07/23 07:26:53;;;;;;;1.20;1.20;;;17.80;99.90;;;;;;6336680;28;20291;-67
2022/07/23 07:29:58;;;;;;;1.10;1.10;;;18.00;99.90;;;;;;6336515;28;20269;-66
2022/07/23 07:33:03;;;;;;;0.90;0.90;;;18.00;99.90;;;;;;6336743;28;20270;-66
2022/07/23 07:36:10;;;;;;;1.38;1.10;;;18.20;99.90;;;;;;6318952;28;20277;-66
2022/07/23 07:39:24;;;;;;;1.13;1.13;;;18.20;99.90;;;;;;6336781;28;20293;-66
2022/07/23 07:42:29;;;;;;;1.27;1.27;;;18.20;99.90;;;;;;6335860;28;20476;-66
2022/07/23 07:45:34;;;;;;;1.00;1.00;;;18.20;99.90;;;;;;6335686;28;20289;-66
2022/07/23 07:48:40;;;;;;;1.58;1.00;;;18.30;99.90;;;;;;6336620;28;20269;-66
2022/07/23 07:51:45;;;;;;;0.90;0.90;;;18.40;99.90;;;;;;6336251;28;20274;-66
2022/07/23 07:54:52;;;;;;;0.98;0.98;;;18.30;99.90;;;;;;6336392;28;20278;-66
2022/07/23 07:57:58;;;;;;;1.00;1.00;;;18.30;99.90;;;;;;6335901;28;20266;-66
2022/07/23 08:01:07;;;;;;;0.88;0.88;;;18.40;99.90;;;;;;6336136;28;20584;-66
2022/07/23 08:04:12;;;;;;;0.90;0.90;;;18.40;99.90;;;;;;6334589;28;20265;-66
2022/07/23 08:07:18;;;;;;;1.02;1.02;;;18.30;99.90;;;;;;6310550;28;20266;-66
2022/07/23 08:10:26;;;;;;;1.15;1.02;;;18.20;99.90;;;;;;6310505;28;20270;-66
2022/07/23 08:13:32;;;;;;;1.00;1.00;;;18.30;99.90;;;;;;6310478;28;20550;-66
2022/07/23 08:16:37;;;;;;;1.00;1.00;;;18.40;99.90;;;;;;6310892;28;20274;-66
2022/07/23 08:20:03;;;;;;;0.93;0.93;;;18.40;99.90;;;;;;6310218;28;20274;-66
2022/07/23 08:23:12;;;;;;;0.90;0.90;;;18.40;99.90;;;;;;6310694;28;20453;-67
2022/07/23 08:26:19;;;;;;;1.02;1.02;;;18.40;99.90;;;;;;6310337;28;20290;-66
2022/07/23 08:29:24;;;;;;;1.38;1.00;;;18.40;99.90;;;;;;6310574;28;20270;-66
2022/07/23 08:32:31;;;;;;;0.90;0.90;;;18.40;99.90;;;;;;6310882;28;20270;-66
2022/07/23 08:35:52;;;;;;;0.90;0.90;;;18.30;99.90;;;;;;6309999;28;20285;-66
2022/07/23 08:38:58;;;;;;;0.90;0.90;;;18.30;99.90;;;;;;6325826;28;20294;-66
2022/07/23 08:42:05;;;;;;;0.90;0.90;;;18.40;99.90;;;;;;6335296;28;20270;-66
2022/07/23 08:45:10;;;;;;;1.23;1.23;;;18.50;99.90;;;;;;6335296;28;20285;-66
2022/07/23 08:48:18;;;;;;;1.40;1.40;;;18.50;99.90;;;;;;6335250;28;20286;-67
2022/07/23 08:51:28;;;;;;;1.08;1.08;;;18.50;99.90;;;;;;6335208;28;20546;-66
2022/07/23 08:54:34;;;;;;;1.10;1.10;;;18.50;99.90;;;;;;6335340;28;20269;-66
2022/07/23 08:57:41;;;;;;;1.10;1.10;;;18.50;99.90;;;;;;6336629;28;20277;-66
2022/07/23 09:00:47;;;;;;;2.22;2.13;;;18.50;99.90;;;;;;6339800;28;20270;-66
2022/07/23 09:03:52;;;;;;;1.40;1.40;;;18.50;99.90;;;;;;6340232;28;20270;-66
2022/07/23 09:06:57;;;;;;;0.90;0.90;;;18.50;99.90;;;;;;6326891;28;20454;-67
2022/07/23 09:10:09;;;;;;;1.02;1.02;;;18.50;99.90;;;;;;6338625;28;20273;-67
2022/07/23 09:13:29;;;;;;;1.10;1.10;;;18.50;99.90;;;;;;6340161;28;20265;-67
2022/07/23 09:16:34;;;;;;;1.48;1.38;;;18.60;99.90;;;;;;6339763;28;20275;-67
2022/07/23 09:19:40;;;;;;;1.30;1.30;;;18.60;99.90;;;;;;6339322;28;20269;-67
2022/07/23 09:22:47;;;;;;;1.35;1.35;;;18.50;99.90;;;;;;6339428;28;20270;-66
2022/07/23 09:25:52;;;;;;;1.60;1.48;;;18.60;99.90;;;;;;6339189;28;20293;-66
2022/07/23 09:29:03;;;;;;;2.08;1.10;;;18.70;99.90;;;;;;6338852;28;20384;-66
2022/07/23 09:32:14;;;;;;;1.30;1.30;;;18.70;99.90;;;;;;6338577;28;20274;-67
2022/07/23 09:35:20;;;;;;;8.63;7.93;;;18.80;99.90;;;;;;6339249;28;20270;-66
2022/07/23 09:38:26;;;;;;;11.43;9.18;;;18.70;99.90;;;;;;6339118;28;20302;-67
2022/07/23 09:41:38;;;;;;;2.70;2.70;;;18.70;99.90;;;;;;6338726;28;20270;-66
2022/07/23 09:44:47;;;;;;;1.60;1.60;;;18.60;99.90;;;;;;6339075;28;20274;-66
2022/07/23 09:47:52;;;;;;;0.90;0.90;;;18.70;99.90;;;;;;6320873;28;20499;-66
2022/07/23 09:51:04;;;;;;;1.00;1.00;;;18.60;99.90;;;;;;6338610;28;20457;-66
2022/07/23 09:54:33;;;;;;;1.20;1.20;;;18.60;99.90;;;;;;6338554;28;20270;-66
2022/07/23 09:57:40;;;;;;;0.80;0.80;;;18.70;99.90;;;;;;6339040;28;20274;-66
2022/07/23 10:00:49;;;;;;;1.13;1.13;;;18.70;99.90;;;;;;6338785;28;20269;-66
2022/07/23 10:03:54;;;;;;;1.52;1.20;;;18.70;99.90;;;;;;6338816;28;20270;-66
2022/07/23 10:07:34;;;;;;;0.80;0.80;;;18.90;99.90;;;;;;6300321;28;20292;-66
2022/07/23 10:11:15;;;;;;;0.93;0.93;;;19.00;99.90;;;;;;6313549;28;20271;-66
2022/07/23 10:14:32;;;;;;;1.10;1.10;;;19.10;99.90;;;;;;6295143;28;20287;-66
2022/07/23 10:17:43;;;;;;;0.95;0.95;;;19.20;99.90;;;;;;6313564;28;20279;-67
2022/07/23 10:20:50;;;;;;;1.20;1.20;;;19.00;99.90;;;;;;6313399;28;20350;-67
2022/07/23 10:24:09;;;;;;;0.80;0.80;;;19.00;99.90;;;;;;6312861;28;20321;-68
2022/07/23 10:27:37;;;;;;;0.98;0.98;;;19.00;99.90;;;;;;6313079;28;20302;-67
2022/07/23 10:30:51;;;;;;;0.95;0.95;;;18.90;99.90;;;;;;6313292;28;20422;-67
2022/07/23 10:34:05;;;;;;;1.20;1.20;;;18.80;99.90;;;;;;6313355;28;20267;-67
2022/07/23 10:37:20;;;;;;;1.02;1.02;;;18.80;99.90;;;;;;6313619;28;20279;-67
2022/07/23 10:40:26;;;;;;;0.90;0.90;;;18.70;99.90;;;;;;6337460;28;20270;-67
2022/07/23 10:43:32;;;;;;;0.90;0.90;;;18.70;99.90;;;;;;6337709;28;20572;-67
2022/07/23 10:47:08;;;;;;;1.42;0.85;;;18.70;99.90;;;;;;6337056;28;20289;-67
2022/07/23 10:50:24;;;;;;;0.98;0.98;;;18.50;99.90;;;;;;6337686;28;20269;-67
2022/07/23 10:53:30;;;;;;;1.17;1.05;;;18.50;99.90;;;;;;6337756;28;20270;-67
2022/07/23 10:57:08;;;;;;;0.95;0.95;;;18.50;99.90;;;;;;6337199;28;20274;-67
2022/07/23 11:00:24;;;;;;;0.93;0.93;;;18.50;99.90;;;;;;6337305;28;20429;-67
2022/07/23 11:03:36;;;;;;;1.00;1.00;;;18.50;99.90;;;;;;6337278;28;20271;-67
2022/07/23 11:07:12;;;;;;;1.38;1.00;;;18.50;99.90;;;;;;6359139;28;20265;-67
2022/07/23 11:10:35;;;;;;;1.20;1.20;;;18.40;99.90;;;;;;6361946;28;20291;-67
2022/07/23 11:13:49;;;;;;;1.00;1.00;;;18.40;99.90;;;;;;6362540;28;20269;-67
2022/07/23 11:16:56;;;;;;;0.90;0.90;;;18.30;99.90;;;;;;6362511;28;20277;-67
2022/07/23 11:20:22;;;;;;;1.00;1.00;;;18.30;99.90;;;;;;6361687;28;20274;-67
2022/07/23 11:23:59;;;;;;;0.90;0.90;;;18.30;99.90;;;;;;6361353;28;20265;-67
2022/07/23 11:27:05;;;;;;;1.00;1.00;;;18.20;99.90;;;;;;6361367;28;20273;-68
2022/07/23 11:30:40;;;;;;;1.42;1.42;;;18.10;99.90;;;;;;6361965;28;20268;-66
2022/07/23 11:33:46;;;;;;;1.10;1.10;;;18.00;99.90;;;;;;6361380;28;20261;-66
2022/07/23 11:36:51;;;;;;;0.85;0.85;;;18.00;99.90;;;;;;6350773;28;20270;-66
2022/07/23 11:39:59;;;;;;;1.05;0.82;;;18.10;99.90;;;;;;6336284;28;20298;-66
2022/07/23 11:43:07;;;;;;;1.10;1.10;;;18.00;99.90;;;;;;6335897;28;20266;-66
2022/07/23 11:46:13;;;;;;;1.35;1.35;;;18.00;99.90;;;;;;6336515;28;20274;-66
2022/07/23 11:49:18;;;;;;;1.13;1.10;;;18.00;99.90;;;;;;6335851;28;20285;-66
2022/07/23 11:52:24;;;;;;;4.93;1.30;;;17.90;99.90;;;;;;6335669;28;20269;-66
2022/07/23 11:55:31;;;;;;;1.98;1.20;;;18.00;99.90;;;;;;6335788;28;20437;-66
2022/07/23 11:58:38;;;;;;;1.45;1.00;;;18.00;99.90;;;;;;6335794;28;20453;-66
2022/07/23 12:01:58;;;;;;;0.90;0.90;;;17.90;99.90;;;;;;6335835;28;20270;-66
2022/07/23 12:05:05;;;;;;;1.00;1.00;;;17.90;99.90;;;;;;6331647;28;20261;-66
2022/07/23 12:08:11;;;;;;;1.20;1.20;;;17.90;99.90;;;;;;6335493;28;20285;-66
2022/07/23 12:11:18;;;;;;;0.93;0.93;;;17.90;99.90;;;;;;6336001;28;20274;-66
2022/07/23 12:14:23;;;;;;;0.93;0.93;;;17.80;99.90;;;;;;6335617;28;20270;-66
2022/07/23 12:17:32;;;;;;;1.10;1.08;;;17.90;99.90;;;;;;6335387;28;20290;-66
2022/07/23 12:20:39;;;;;;;1.30;1.30;;;17.90;99.90;;;;;;6335394;28;20553;-66
2022/07/23 12:23:44;;;;;;;1.17;1.17;;;17.70;99.90;;;;;;6335416;28;20270;-66
2022/07/23 12:27:14;;;;;;;1.30;1.30;;;17.80;99.90;;;;;;6335566;28;20445;-66
2022/07/23 12:30:23;;;;;;;1.30;1.30;;;17.80;99.90;;;;;;6335726;28;20321;-66
2022/07/23 12:33:30;;;;;;;1.70;1.40;;;17.90;99.90;;;;;;6339264;28;20270;-66
2022/07/23 12:36:40;;;;;;;1.40;1.30;;;17.90;99.90;;;;;;6340504;28;20273;-66
2022/07/23 12:39:46;;;;;;;1.60;1.50;;;17.80;99.90;;;;;;6340944;28;20297;-66
2022/07/23 12:42:56;;;;;;;2.47;1.00;;;17.70;99.90;;;;;;6340503;28;20269;-66
2022/07/23 12:46:06;;;;;;;1.48;1.35;;;17.80;99.90;;;;;;6340853;28;20269;-66
2022/07/23 12:49:12;;;;;;;1.38;1.27;;;17.70;99.90;;;;;;6340579;28;20290;-66
2022/07/23 12:52:18;;;;;;;1.60;1.20;;;17.70;99.90;;;;;;6339603;28;20269;-67
2022/07/23 12:55:28;;;;;;;1.45;1.10;;;17.70;99.90;;;;;;6339942;28;20538;-66
2022/07/23 12:58:45;;;;;;;1.45;1.33;;;17.80;99.90;;;;;;6340100;28;20273;-66
2022/07/23 13:01:58;;;;;;;1.58;1.58;;;17.80;99.90;;;;;;6339798;28;20457;-66
2022/07/23 13:05:03;;;;;;;4.00;3.75;;;17.80;99.90;;;;;;6331825;28;20267;-66
2022/07/23 13:08:12;;;;;;;5.10;4.75;;;18.00;99.90;;;;;;6337263;28;20278;-66
2022/07/23 13:11:18;;;;;;;2.97;2.88;;;18.00;99.90;;;;;;6339905;28;20269;-66
2022/07/23 13:14:26;;;;;;;1.33;1.30;;;18.00;99.90;;;;;;6339987;28;20275;-66
2022/07/23 13:17:31;;;;;;;2.17;1.95;;;18.00;99.90;;;;;;6339646;28;20270;-67
2022/07/23 13:20:38;;;;;;;1.38;1.38;;;18.00;99.90;;;;;;6331459;28;20274;-66
2022/07/23 13:23:43;;;;;;;1.88;1.65;;;18.10;99.90;;;;;;6339289;28;20290;-66
2022/07/23 13:26:50;;;;;;;1.23;1.23;;;18.00;99.90;;;;;;6338801;28;20278;-66
2022/07/23 13:29:58;;;;;;;1.45;1.40;;;18.00;99.90;;;;;;6339394;28;20298;-66
2022/07/23 13:33:04;;;;;;;1.50;1.50;;;18.10;99.90;;;;;;6338796;28;20564;-66
2022/07/23 13:36:12;;;;;;;1.58;1.10;;;18.10;99.90;;;;;;6338956;28;20269;-66
2022/07/23 13:39:17;;;;;;;1.50;1.50;;;18.20;99.90;;;;;;6339318;28;20302;-66
2022/07/23 13:42:22;;;;;;;1.30;1.30;;;18.20;99.90;;;;;;6338456;28;20431;-66
2022/07/23 13:45:30;;;;;;;1.23;1.20;;;18.20;99.90;;;;;;6338846;28;20269;-66
2022/07/23 13:48:35;;;;;;;2.28;2.20;;;18.20;99.90;;;;;;6338747;28;20570;-66
2022/07/23 13:51:41;;;;;;;2.33;2.22;;;18.20;99.90;;;;;;6338650;28;20274;-66
2022/07/23 13:54:46;;;;;;;2.03;1.60;;;18.20;99.90;;;;;;6338165;28;20270;-67
2022/07/23 13:57:51;;;;;;;1.52;1.52;;;18.30;99.90;;;;;;6338024;28;20269;-67
2022/07/23 14:00:58;;;;;;;1.08;1.08;;;18.30;99.90;;;;;;6338368;28;20274;-67
2022/07/23 14:04:04;;;;;;;1.27;1.27;;;18.30;99.90;;;;;;6338801;28;20545;-67
2022/07/23 14:07:10;;;;;;;1.33;1.33;;;18.30;99.90;;;;;;6338565;28;20290;-67
2022/07/23 14:10:17;;;;;;;1.50;1.50;;;18.30;99.90;;;;;;6338548;28;20301;-67
2022/07/23 14:13:26;;;;;;;1.20;1.20;;;18.30;99.90;;;;;;6338338;28;20320;-67
2022/07/23 14:16:36;;;;;;;1.67;1.67;;;18.40;99.90;;;;;;6337709;28;20270;-67
2022/07/23 14:19:41;;;;;;;2.78;1.70;;;18.50;99.90;;;;;;6337983;28;20569;-67
2022/07/23 14:22:47;;;;;;;1.55;1.50;;;18.50;99.90;;;;;;6337693;28;20285;-67
2022/07/23 14:25:52;;;;;;;1.40;1.40;;;18.50;99.90;;;;;;6337813;28;20267;-67
2022/07/23 14:28:58;;;;;;;1.50;1.50;;;18.40;99.90;;;;;;6338003;28;20270;-67
2022/07/23 14:32:07;;;;;;;1.50;1.40;;;18.40;99.90;;;;;;6337981;28;20294;-67
2022/07/23 14:35:12;;;;;;;1.40;1.30;;;18.30;99.90;;;;;;6337380;28;20270;-67
2022/07/23 14:38:18;;;;;;;1.50;1.50;;;18.40;99.90;;;;;;6337424;28;20479;-67
2022/07/23 14:41:23;;;;;;;1.40;1.40;;;18.40;99.90;;;;;;6337043;28;20274;-67
2022/07/23 14:44:48;;;;;;;1.67;1.60;;;18.40;99.90;;;;;;6337327;28;20270;-65
2022/07/23 14:47:55;;;;;;;1.40;1.40;;;18.50;99.90;;;;;;6337046;28;20269;-66
2022/07/23 14:51:02;;;;;;;1.60;1.50;;;18.50;99.90;;;;;;6336792;28;20467;-66
2022/07/23 14:54:07;;;;;;;3.42;1.60;;;18.50;99.90;;;;;;6337293;28;20270;-67
2022/07/23 14:57:12;;;;;;;1.58;1.50;;;18.40;99.90;;;;;;6336471;28;20275;-67
2022/07/23 15:00:20;;;;;;;3.83;3.65;;;18.40;99.90;;;;;;6336721;28;20278;-66
2022/07/23 15:03:29;;;;;;;2.30;2.17;;;18.30;99.90;;;;;;6336948;28;20270;-66
2022/07/23 15:06:48;;;;;;;2.00;1.60;;;18.20;99.90;;;;;;6336849;28;20430;-67
2022/07/23 15:09:53;;;;;;;2.13;2.03;;;18.20;99.90;;;;;;6337087;28;20269;-67
2022/07/23 15:12:58;;;;;;;1.45;1.35;;;18.20;99.90;;;;;;6336309;28;20274;-67
2022/07/23 15:16:06;;;;;;;1.70;1.60;;;18.20;99.90;;;;;;6337127;28;20274;-67
2022/07/23 15:19:15;;;;;;;1.90;1.90;;;18.20;99.90;;;;;;6336622;28;20573;-67
2022/07/23 15:22:21;;;;;;;1.40;1.35;;;18.20;99.90;;;;;;6336867;28;20278;-67
2022/07/23 15:25:27;;;;;;;1.73;1.65;;;18.20;99.90;;;;;;6336646;28;20274;-67
2022/07/23 15:28:32;;;;;;;1.85;1.80;;;18.20;99.90;;;;;;6336695;28;20460;-67
2022/07/23 15:31:38;;;;;;;1.50;1.50;;;18.20;99.90;;;;;;6336611;28;20289;-67
2022/07/23 15:34:44;;;;;;;1.13;1.13;;;18.30;99.90;;;;;;6336359;28;20274;-67
2022/07/23 15:37:52;;;;;;;2.40;1.65;;;18.30;99.90;;;;;;6336470;28;20301;-67
2022/07/23 15:40:59;;;;;;;1.70;1.60;;;18.30;99.90;;;;;;6336340;28;20561;-67
2022/07/23 15:44:05;;;;;;;1.65;1.63;;;18.20;99.90;;;;;;6336744;28;20210;-67
2022/07/23 15:47:31;;;;;;;2.00;1.50;;;18.20;99.90;;;;;;6336067;28;20290;-67
2022/07/23 15:50:37;;;;;;;1.73;1.67;;;18.30;99.90;;;;;;6336324;28;20534;-67
2022/07/23 15:53:50;;;;;;;3.30;3.20;;;18.30;99.90;;;;;;6335814;28;20269;-67
2022/07/23 15:56:55;;;;;;;2.42;2.25;;;18.30;99.90;;;;;;6335903;28;20516;-67
2022/07/23 16:00:00;;;;;;;2.38;1.60;;;18.40;99.90;;;;;;6336108;28;20274;-67
2022/07/23 16:03:08;;;;;;;1.83;1.70;;;18.50;99.90;;;;;;6335877;28;20273;-67
2022/07/23 16:06:15;;;;;;;1.58;1.42;;;18.40;99.90;;;;;;6323260;28;20261;-67
2022/07/23 16:09:22;;;;;;;2.00;1.90;;;18.40;99.90;;;;;;6335885;28;20270;-67
2022/07/23 16:12:27;;;;;;;1.90;1.85;;;18.40;99.90;;;;;;6335582;28;20290;-67
2022/07/23 16:15:32;;;;;;;3.15;3.05;;;18.40;99.90;;;;;;6335435;28;20269;-67
2022/07/23 16:18:38;;;;;;;1.52;1.52;;;18.40;99.90;;;;;;6335454;28;20328;-67